Latest Coastal Weather Observations for Gunn Point

IDD60701

Issued at 12:31 pm CST Saturday 8 August 2020 (issued every 10 minutes, with the page automatically refreshed every 10 minutes)

About coastal observations | Map of coastal stations | Coastal observations for NT | Marine services | Other Formats
Station Details ID: 014023 Name: GUNN POINT Lat: -12.25 Lon: 131.04 Height: 25.0 m
Data from the previous 72 hours. | See also: Recent months for locations in Northern Territory
Date/Time
CST
Wind Sea
Height
m
Swell Vis
km
Cloud Weather Temp
°C
Press
hPa
Rain since
9am
mm
Dir  Spd
kts
Gust
kts
Height
m
Period
s
Dir
08/12:30pm ESE 7 13 - - - - - - - 32.3 1012.6 0.0
08/12:00pm SE 8 16 - - - - - - - 31.9 1012.9 0.0
08/11:30am ESE 9 15 - - - - - - - 30.7 1013.5 0.0
08/11:00am SE 9 19 - - - - - - - 30.3 1013.8 0.0
08/10:30am SE 8 13 - - - - - - - 29.0 1014.1 0.0
08/10:00am SE 10 18 - - - - - - - 28.2 1014.2 0.0
08/09:30am SE 7 14 - - - - - - - 27.6 1014.3 0.0
08/09:00am ESE 6 13 - - - - - - - 25.5 1014.2 0.0
08/08:30am SE 5 9 - - - - - - - 23.9 1013.9 0.0
08/08:00am SE 5 8 - - - - - - - 22.0 1013.7 0.0
08/07:30am SE 3 6 - - - - - - - 19.7 1013.4 0.0
08/07:00am SE 4 6 - - - - - - - 19.0 1013.2 0.0
08/06:30am SE 3 5 - - - - - - - 19.1 1012.9 0.0
08/06:00am SE 4 7 - - - - - - - 19.7 1012.8 0.0
08/05:30am SE 4 7 - - - - - - - 20.0 1012.5 0.0
08/05:00am SE 6 9 - - - - - - - 20.0 1012.1 0.0
08/04:30am SSE 4 6 - - - - - - - 18.4 1012.1 0.0
08/04:00am SE 1 4 - - - - - - - 15.3 1012.2 0.0
08/03:30am CALM 0 0 - - - - - - - 16.0 1012.4 0.0
08/03:00am CALM 0 0 - - - - - - - 16.1 1012.4 0.0
08/02:30am CALM 0 0 - - - - - - - 16.6 1012.6 0.0
08/02:00am CALM 0 0 - - - - - - - 16.8 1012.5 0.0
08/01:30am CALM 0 0 - - - - - - - 17.3 1012.7 0.0
08/01:00am CALM 0 0 - - - - - - - 17.5 1012.7 0.0
08/12:30am CALM 0 0 - - - - - - - 17.9 1012.9 0.0
08/12:00am CALM 0 0 - - - - - - - 18.3 1012.9 0.0
 
Date/Time
CST
Wind Sea
Height
m
Swell Vis
km
Cloud Weather Temp
°C
Press
hPa
Rain since
9am
mm
Dir  Spd
kts
Gust
kts
Height
m
Period
s
Dir
07/11:30pm CALM 0 0 - - - - - - - 18.9 1012.8 0.0
07/11:00pm CALM 0 0 - - - - - - - 19.7 1013.0 0.0
07/10:30pm CALM 0 0 - - - - - - - 20.3 1013.1 0.0
07/10:00pm CALM 0 0 - - - - - - - 21.0 1013.0 0.0
07/09:30pm CALM 0 0 - - - - - - - 22.7 1012.8 0.0
07/09:00pm CALM 0 0 - - - - - - - 23.1 1012.5 0.0
07/08:30pm CALM 0 1 - - - - - - - 24.0 1012.2 0.0
07/08:00pm WNW 1 4 - - - - - - - 24.9 1011.8 0.0
07/07:30pm WNW 3 5 - - - - - - - 25.1 1011.2 0.0
07/07:00pm W 3 8 - - - - - - - 25.4 1010.7 0.0
07/06:30pm WNW 4 8 - - - - - - - 25.7 1010.4 0.0
07/06:00pm W 4 8 - - - - - - - 26.5 1010.3 0.0
07/05:30pm W 7 11 - - - - - - - 27.1 1010.0 0.0
07/05:00pm WNW 5 8 - - - - - - - 28.2 1009.9 0.0
07/04:30pm NW 6 10 - - - - - - - 28.0 1009.9 0.0
07/04:00pm WNW 6 13 - - - - - - - 29.5 1009.7 0.0
07/03:30pm W 7 11 - - - - - - - 29.8 1009.5 0.0
07/03:00pm W 7 11 - - - - - - - 30.8 1009.7 0.0
07/02:30pm WNW 7 11 - - - - - - - 30.0 1010.1 0.0
07/02:00pm WNW 6 9 - - - - - - - 30.6 1010.5 0.0
07/01:30pm WSW 4 9 - - - - - - - - 1010.8 0.0
07/01:00pm SSW 3 8 - - - - - - - 31.0 1011.3 0.0
07/12:30pm S 5 9 - - - - - - - 29.6 1011.8 0.0
07/12:00pm SSW 5 11 - - - - - - - 29.9 1012.4 0.0
07/11:30am S 6 13 - - - - - - - - 1012.9 0.0
07/11:00am S 6 8 - - - - - - - - 1013.3 0.0
07/10:30am SW 4 10 - - - - - - - - 1013.4 0.0
07/10:00am SSW 6 10 - - - - - - - - 1013.5 0.0
07/09:30am S 6 12 - - - - - - - - 1013.7 0.0
07/09:00am S 5 9 - - - - - - - - 1013.5 0.0
07/08:30am S 5 8 - - - - - - - - 1013.4 0.0
07/08:00am SSE 5 8 - - - - - - - - 1013.1 0.0
07/07:30am SSE 3 5 - - - - - - - - 1012.6 0.0
07/07:00am CALM 0 0 - - - - - - - - 1011.9 0.0
07/06:30am CALM 0 0 - - - - - - - - 1011.4 0.0
07/06:00am CALM 0 0 - - - - - - - - 1011.0 0.0
07/05:30am CALM 0 1 - - - - - - - - 1010.9 0.0
07/05:00am CALM 0 1 - - - - - - - - 1010.8 0.0
07/04:30am CALM 0 0 - - - - - - - 18.3 1010.7 0.0
07/04:00am CALM 0 0 - - - - - - - 18.6 1010.5 0.0
07/03:30am CALM 0 1 - - - - - - - 18.8 1010.7 0.0
07/03:00am CALM 0 0 - - - - - - - 18.8 1011.0 0.0
07/02:30am CALM 0 0 - - - - - - - 19.3 1011.1 0.0
07/02:00am CALM 0 0 - - - - - - - 19.4 1011.3 0.0
07/01:30am CALM 0 0 - - - - - - - 19.6 1011.3 0.0
07/01:00am CALM 0 0 - - - - - - - 20.1 1011.5 0.0
07/12:30am CALM 0 0 - - - - - - - 20.9 1011.7 0.0
07/12:00am CALM 0 0 - - - - - - - 21.5 1011.8 0.0
 
Date/Time
CST
Wind Sea
Height
m
Swell Vis
km
Cloud Weather Temp
°C
Press
hPa
Rain since
9am
mm
Dir  Spd
kts
Gust
kts
Height
m
Period
s
Dir
06/11:30pm CALM 0 2 - - - - - - - 23.1 1012.1 0.0
06/11:00pm WSW 2 5 - - - - - - - 23.8 1012.1 0.0
06/10:30pm WSW 2 5 - - - - - - - 24.1 1012.0 0.0
06/10:00pm WSW 2 5 - - - - - - - 24.2 1011.8 0.0
06/09:30pm WSW 2 5 - - - - - - - 24.3 1011.8 0.0
06/09:00pm WSW 3 7 - - - - - - - 24.6 1011.4 0.0
06/08:30pm WSW 4 7 - - - - - - - 24.8 1011.1 0.0
06/08:00pm WSW 5 10 - - - - - - - 25.1 1010.7 0.0
06/07:30pm W 5 10 - - - - - - - 25.3 1010.4 0.0
06/07:00pm W 6 9 - - - - - - - 25.5 1010.1 0.0
06/06:30pm W 6 11 - - - - - - - 25.8 1009.8 0.0
06/06:00pm W 6 11 - - - - - - - 26.4 1009.8 0.0
06/05:30pm W 6 11 - - - - - - - 27.3 1009.6 0.0
06/05:00pm W 7 13 - - - - - - - 27.5 1009.6 0.0
06/04:30pm W 7 11 - - - - - - - 28.0 1009.4 0.0
06/04:00pm W 8 13 - - - - - - - 28.0 1009.3 0.0
06/03:30pm W 7 13 - - - - - - - 28.5 1009.5 0.0
06/03:00pm WNW 8 14 - - - - - - - 27.6 1009.8 0.0
06/02:30pm W 9 14 - - - - - - - 27.9 1010.2 0.0
06/02:00pm W 8 13 - - - - - - - 27.9 1010.6 0.0
06/01:30pm WNW 7 12 - - - - - - - 27.9 1011.0 0.0
06/01:00pm W 8 13 - - - - - - - 27.7 1011.4 0.0
06/12:30pm W 7 12 - - - - - - - 27.5 1011.8 0.0
06/12:00pm W 5 9 - - - - - - - 27.3 1012.1 0.0
06/11:30am W 5 8 - - - - - - - 27.4 1012.4 0.0
06/11:00am W 4 7 - - - - - - - 27.1 1012.7 0.0
06/10:30am W 4 7 - - - - - - - 27.0 1012.8 0.0
06/10:00am W 5 7 - - - - - - - 26.6 1012.8 0.0
06/09:30am W 3 6 - - - - - - - 26.1 1012.8 0.0
06/09:00am CALM 0 0 - - - - - - - 24.9 1012.6 0.0
06/08:30am SSE 1 3 - - - - - - - 24.3 1012.3 0.0
06/08:00am SSE 1 3 - - - - - - - 22.9 1011.9 0.0
06/07:30am CALM 0 0 - - - - - - - 21.7 1011.6 0.0
06/07:00am CALM 0 0 - - - - - - - 22.0 1011.2 0.0
06/06:30am CALM 0 0 - - - - - - - 22.9 1010.7 0.0
06/06:00am SSW 1 3 - - - - - - - 23.9 1010.3 0.0
06/05:30am W 3 7 - - - - - - - 24.5 1010.0 0.0
06/05:00am W 3 7 - - - - - - - 24.4 1009.7 0.0
06/04:30am W 5 7 - - - - - - - 24.6 1009.6 0.0
06/04:00am W 3 5 - - - - - - - 24.4 1009.6 0.0
06/03:30am W 4 6 - - - - - - - 24.6 1009.7 0.0
06/03:00am W 3 7 - - - - - - - 24.3 1009.8 0.0
06/02:30am W 3 6 - - - - - - - 24.4 1010.1 0.0
06/02:00am W 3 4 - - - - - - - 24.2 1010.1 0.0
06/01:30am W 3 6 - - - - - - - 24.2 1010.3 0.0
06/01:00am WNW 3 6 - - - - - - - 24.3 1010.4 0.0
06/12:30am WNW 3 5 - - - - - - - 24.2 1010.5 0.0
06/12:00am WNW 3 6 - - - - - - - 24.3 1010.5 0.0
 
Date/Time
CST
Wind Sea
Height
m
Swell Vis
km
Cloud Weather Temp
°C
Press
hPa
Rain since
9am
mm
Dir  Spd
kts
Gust
kts
Height
m
Period
s
Dir
05/11:30pm WNW 4 6 - - - - - - - 24.6 1010.7 0.0
05/11:00pm WNW 3 5 - - - - - - - 24.3 1010.6 0.0
05/10:30pm WNW 3 5 - - - - - - - 24.0 1010.5 0.0
05/10:00pm CALM 0 0 - - - - - - - 21.7 1010.3 0.0
05/09:30pm CALM 0 0 - - - - - - - 21.6 1010.1 0.0
05/09:00pm CALM 0 0 - - - - - - - 21.8 1009.9 0.0
05/08:30pm CALM 0 1 - - - - - - - 22.4 1009.7 0.0
05/08:00pm CALM 0 0 - - - - - - - 22.7 1009.3 0.0
05/07:30pm CALM 0 1 - - - - - - - 24.0 1009.0 0.0
05/07:00pm NE 2 3 - - - - - - - 25.6 1008.8 0.0
05/06:30pm NE 3 6 - - - - - - - 27.0 1008.7 0.0
05/06:00pm NE 4 7 - - - - - - - 28.2 1008.4 0.0
05/05:30pm NNE 3 6 - - - - - - - 29.6 1008.1 0.0
05/05:00pm ENE 5 8 - - - - - - - 29.6 1008.0 0.0
05/04:30pm ENE 5 9 - - - - - - - 30.2 1008.1 0.0
05/04:00pm NNE 5 10 - - - - - - - 29.7 1008.2 0.0
05/03:30pm NE 6 11 - - - - - - - 29.8 1008.4 0.0
05/03:00pm NE 5 11 - - - - - - - 30.3 1008.8 0.0
05/02:30pm ENE 6 10 - - - - - - - 30.1 1009.2 0.0
05/02:00pm NNE 3 8 - - - - - - - 30.7 1009.6 0.0
05/01:30pm NNE 3 13 - - - - - - - 29.9 1010.3 0.0
05/01:00pm NE 4 9 - - - - - - - 29.4 1010.8 0.0

Other formats

Comma delimited format used in spreadsheet applications
http://www.bom.gov.au/fwo/IDD60701/IDD60701.99501.axf

JavaScript Object Notation format (JSON) in row-major order
http://www.bom.gov.au/fwo/IDD60701/IDD60701.99501.json

Data quality

Most of these data are generated automatically and are frequently updated. Quality checks on data are not normally performed. It is possible for incorrect values to appear. Refer to information at About Latest Weather Observations and please check the disclaimer before using these data.